createdAt,value
2018-10-09T00:01:38.204Z,100719.00
2018-10-09T00:06:41.224Z,100709.00
2018-10-09T00:11:44.243Z,100707.00
2018-10-09T00:16:47.414Z,100718.00
2018-10-09T00:21:50.401Z,100714.00
2018-10-09T00:26:53.402Z,100712.00
2018-10-09T00:31:56.422Z,100715.00
2018-10-09T00:36:59.395Z,100723.00
2018-10-09T00:42:02.727Z,100723.00
2018-10-09T00:47:05.818Z,100729.00
2018-10-09T00:52:09.019Z,100726.00
2018-10-09T00:57:12.028Z,100723.00
2018-10-09T01:02:15.090Z,100724.00
2018-10-09T01:07:18.090Z,100727.00
2018-10-09T01:12:21.074Z,100722.00
2018-10-09T01:17:24.064Z,100724.00
2018-10-09T01:22:27.563Z,100721.00
2018-10-09T01:27:30.661Z,100732.00
2018-10-09T01:32:33.607Z,100733.00
2018-10-09T01:37:37.039Z,100726.00
2018-10-09T01:42:40.090Z,100728.00
2018-10-09T01:47:43.099Z,100723.00
2018-10-09T01:52:46.084Z,100724.00
2018-10-09T01:57:49.051Z,100728.00
2018-10-09T02:02:52.095Z,100722.00
2018-10-09T02:07:55.124Z,100733.00
2018-10-09T02:12:58.152Z,100728.00
2018-10-09T02:18:03.175Z,100733.00
2018-10-09T02:23:06.384Z,100729.00
2018-10-09T02:28:09.364Z,100730.00
2018-10-09T02:33:12.332Z,100733.00
2018-10-09T02:38:15.315Z,100725.00
2018-10-09T02:43:18.311Z,100723.00
2018-10-09T02:48:21.290Z,100718.00
2018-10-09T02:53:24.257Z,100720.00
2018-10-09T02:58:27.235Z,100715.00
2018-10-09T03:03:30.282Z,100721.00
2018-10-09T03:08:33.333Z,100731.00
2018-10-09T03:13:36.362Z,100720.00
2018-10-09T03:18:39.295Z,100725.00
2018-10-09T03:23:42.359Z,100733.00
2018-10-09T03:28:45.367Z,100720.00
2018-10-09T03:33:48.358Z,100727.00
2018-10-09T03:38:52.351Z,100714.00
2018-10-09T03:43:55.339Z,100711.00
2018-10-09T03:48:58.330Z,100712.00
2018-10-09T03:54:02.184Z,100722.00
2018-10-09T03:59:05.219Z,100721.00
2018-10-09T04:04:08.205Z,100719.00
2018-10-09T04:09:12.910Z,100728.00
2018-10-09T04:14:15.853Z,100724.00
2018-10-09T04:19:18.848Z,100725.00
2018-10-09T04:24:21.812Z,100719.00
2018-10-09T04:29:24.846Z,100731.00
2018-10-09T04:34:27.802Z,100722.00
2018-10-09T04:39:30.907Z,100715.00
2018-10-09T04:44:34.218Z,100696.00
2018-10-09T04:49:37.225Z,100697.00
2018-10-09T04:54:40.238Z,100691.00
2018-10-09T04:59:43.275Z,100684.00
2018-10-09T05:04:46.311Z,100685.00
2018-10-09T05:09:49.417Z,100688.00
2018-10-09T05:14:52.378Z,100694.00
2018-10-09T05:19:55.342Z,100691.00
2018-10-09T05:24:58.416Z,100688.00
2018-10-09T05:30:02.278Z,100697.00
2018-10-09T05:35:05.497Z,100696.00
2018-10-09T05:40:08.679Z,100690.00
2018-10-09T05:45:11.881Z,100685.00
2018-10-09T05:50:14.904Z,100697.00
2018-10-09T05:55:17.918Z,100693.00
2018-10-09T06:00:20.920Z,100705.00
2018-10-09T06:05:23.910Z,100719.00
2018-10-09T06:10:26.897Z,100722.00
2018-10-09T06:15:29.925Z,100742.00
2018-10-09T06:20:33.137Z,100750.00
2018-10-09T06:25:36.284Z,100753.00
2018-10-09T06:30:39.311Z,100740.00
2018-10-09T06:35:43.151Z,100769.00
2018-10-09T06:40:46.448Z,100766.00
2018-10-09T06:45:49.356Z,100712.00
2018-10-09T06:50:52.264Z,100794.00
2018-10-09T06:55:55.261Z,100805.00
2018-10-09T07:00:58.360Z,100814.00
2018-10-09T07:06:02.677Z,100828.00
2018-10-09T07:11:05.946Z,100834.00
2018-10-09T07:16:08.852Z,100837.00
2018-10-09T07:21:11.852Z,100835.00
2018-10-09T07:26:14.825Z,100844.00
2018-10-09T07:31:17.827Z,100856.00
2018-10-09T07:36:20.829Z,100857.00
2018-10-09T07:41:23.858Z,100868.00
2018-10-09T07:46:28.767Z,100871.00
2018-10-09T07:51:31.793Z,100873.00
2018-10-09T07:56:34.762Z,100865.00
2018-10-09T08:01:37.729Z,100878.00
2018-10-09T08:06:40.715Z,100887.00
2018-10-09T08:11:43.761Z,100889.00
2018-10-09T08:16:46.823Z,100897.00
2018-10-09T08:21:49.831Z,100894.00
2018-10-09T08:26:52.804Z,100904.00
2018-10-09T08:31:55.815Z,100913.00
2018-10-09T08:36:58.915Z,100920.00
2018-10-09T08:42:02.724Z,100927.00
2018-10-09T08:47:05.860Z,100924.00
2018-10-09T08:52:08.919Z,100921.00
2018-10-09T08:57:11.854Z,100916.00
2018-10-09T09:02:14.858Z,100921.00
2018-10-09T09:07:17.878Z,100920.00
2018-10-09T09:12:20.900Z,100918.00
2018-10-09T09:17:23.885Z,100912.00
2018-10-09T09:22:26.923Z,100911.00
2018-10-09T09:27:30.032Z,100921.00
2018-10-09T09:32:32.929Z,100917.00
2018-10-09T09:37:36.084Z,100916.00
2018-10-09T09:42:39.087Z,100918.00
2018-10-09T09:47:42.131Z,100913.00
2018-10-09T09:52:45.120Z,100906.00
2018-10-09T09:57:48.215Z,100900.00
2018-10-09T10:02:51.259Z,100913.00
2018-10-09T10:07:54.299Z,100906.00
2018-10-09T10:12:57.257Z,100899.00
2018-10-09T10:18:02.274Z,100905.00
2018-10-09T10:23:05.464Z,100905.00
2018-10-09T10:28:08.499Z,100905.00
2018-10-09T10:33:11.803Z,100904.00
2018-10-09T10:38:14.752Z,100903.00
2018-10-09T10:43:17.752Z,100905.00
2018-10-09T10:48:20.760Z,100889.00
2018-10-09T10:53:23.800Z,100894.00
2018-10-09T10:58:26.788Z,100890.00
2018-10-09T11:03:29.821Z,100887.00
2018-10-09T11:08:32.826Z,100886.00
2018-10-09T11:13:35.835Z,100884.00
2018-10-09T11:18:38.839Z,100876.00
2018-10-09T11:23:41.974Z,100880.00
2018-10-09T11:28:44.960Z,100872.00
2018-10-09T11:33:47.977Z,100869.00
2018-10-09T11:38:50.959Z,100866.00
2018-10-09T11:43:54.227Z,100867.00
2018-10-09T11:48:57.220Z,100850.00
2018-10-09T11:54:00.334Z,100846.00
2018-10-09T11:59:04.755Z,100846.00
2018-10-09T12:04:07.675Z,100828.00
2018-10-09T12:09:12.147Z,100825.00
2018-10-09T12:14:15.178Z,100831.00
2018-10-09T12:19:18.227Z,100820.00
2018-10-09T12:24:21.271Z,100829.00
2018-10-09T12:29:24.445Z,100813.00
2018-10-09T12:34:27.757Z,100823.00
2018-10-09T12:39:30.767Z,100819.00
2018-10-09T12:44:33.784Z,100807.00
2018-10-09T12:49:36.793Z,100804.00
2018-10-09T12:54:39.775Z,100801.00
2018-10-09T12:59:42.792Z,100795.00
2018-10-09T13:04:45.786Z,100798.00
2018-10-09T13:09:48.789Z,100801.00
2018-10-09T13:14:51.919Z,100797.00
2018-10-09T13:19:55.533Z,100794.00
2018-10-09T13:24:58.653Z,100786.00
2018-10-09T13:30:03.965Z,100781.00
2018-10-09T13:35:07.056Z,100774.00
2018-10-09T13:40:10.304Z,100763.00
2018-10-09T13:45:13.344Z,100758.00
2018-10-09T13:50:16.420Z,100759.00
2018-10-09T13:55:19.502Z,100754.00
2018-10-09T14:00:22.584Z,100756.00
2018-10-09T14:05:25.648Z,100742.00
2018-10-09T14:10:28.729Z,100740.00
2018-10-09T14:15:31.779Z,100726.00
2018-10-09T14:20:34.801Z,100728.00
2018-10-09T14:25:37.818Z,100721.00
2018-10-09T14:30:40.839Z,100730.00
2018-10-09T14:35:43.921Z,100727.00
2018-10-09T14:40:47.284Z,100725.00
2018-10-09T14:45:50.266Z,100706.00
2018-10-09T14:50:53.269Z,100712.00
2018-10-09T14:55:56.398Z,100718.00
2018-10-09T15:00:59.593Z,100712.00
2018-10-09T15:06:05.349Z,100718.00
2018-10-09T15:11:08.349Z,100718.00
2018-10-09T15:16:11.363Z,100713.00
2018-10-09T15:21:14.336Z,100715.00
2018-10-09T15:26:17.368Z,100718.00
2018-10-09T15:31:20.362Z,100718.00
2018-10-09T15:36:23.336Z,100720.00
2018-10-09T15:41:26.401Z,100713.00
2018-10-09T15:46:29.528Z,100707.00
2018-10-09T15:51:32.783Z,100712.00
2018-10-09T15:56:35.959Z,100713.00
2018-10-09T16:01:38.876Z,100712.00
2018-10-09T16:06:41.880Z,100716.00
2018-10-09T16:11:44.830Z,100721.00
2018-10-09T16:16:47.819Z,100716.00
2018-10-09T16:21:50.895Z,100713.00
2018-10-09T16:26:54.096Z,100710.00
2018-10-09T16:31:57.151Z,100714.00
2018-10-09T16:37:00.134Z,100709.00
2018-10-09T16:42:03.894Z,100709.00
2018-10-09T16:47:07.081Z,100707.00
2018-10-09T16:52:10.093Z,100711.00
2018-10-09T16:57:13.171Z,100716.00
2018-10-09T17:02:16.196Z,100704.00
2018-10-09T17:07:19.590Z,100708.00
2018-10-09T17:12:22.712Z,100713.00
2018-10-09T17:17:25.961Z,100718.00
2018-10-09T17:22:28.984Z,100708.00
2018-10-09T17:27:31.945Z,100721.00
2018-10-09T17:32:35.338Z,100725.00
2018-10-09T17:37:38.453Z,100730.00
2018-10-09T17:42:41.466Z,100736.00
2018-10-09T17:47:44.666Z,100732.00
2018-10-09T17:52:47.829Z,100738.00
2018-10-09T17:57:50.748Z,100748.00
2018-10-09T18:02:53.760Z,100734.00
2018-10-09T18:07:56.788Z,100747.00
2018-10-09T18:12:59.857Z,100741.00
2018-10-09T18:18:03.452Z,100742.00
2018-10-09T18:23:06.614Z,100742.00
2018-10-09T18:28:09.515Z,100750.00
2018-10-09T18:33:12.659Z,100749.00
2018-10-09T18:38:15.704Z,100745.00
2018-10-09T18:43:18.763Z,100750.00
2018-10-09T18:48:21.940Z,100742.00
2018-10-09T18:53:25.020Z,100743.00
2018-10-09T18:58:28.060Z,100747.00
2018-10-09T19:03:31.333Z,100750.00
2018-10-09T19:08:34.559Z,100749.00
2018-10-09T19:13:37.996Z,100743.00
2018-10-09T19:18:41.294Z,100744.00
2018-10-09T19:23:44.418Z,100739.00
2018-10-09T19:28:47.550Z,100739.00
2018-10-09T19:33:50.964Z,100745.00
2018-10-09T19:38:54.044Z,100747.00
2018-10-09T19:43:57.456Z,100754.00
2018-10-09T19:49:01.710Z,100769.00
2018-10-09T19:54:05.116Z,100758.00
2018-10-09T19:59:08.281Z,100762.00
2018-10-09T20:04:11.319Z,100764.00
2018-10-09T20:09:14.456Z,100756.00
2018-10-09T20:14:17.521Z,100760.00
2018-10-09T20:19:20.753Z,100751.00
2018-10-09T20:24:24.101Z,100754.00
2018-10-09T20:29:27.651Z,100748.00
2018-10-09T20:34:30.814Z,100757.00
2018-10-09T20:39:33.914Z,100754.00
2018-10-09T20:44:36.911Z,100761.00
2018-10-09T20:49:39.921Z,100756.00
2018-10-09T20:54:43.138Z,100758.00
2018-10-09T20:59:46.168Z,100762.00
2018-10-09T21:04:49.161Z,100757.00
2018-10-09T21:09:52.242Z,100763.00
2018-10-09T21:14:55.249Z,100760.00
2018-10-09T21:19:58.308Z,100752.00
2018-10-09T21:25:03.138Z,100748.00
2018-10-09T21:30:06.396Z,100748.00
2018-10-09T21:35:09.583Z,100746.00
2018-10-09T21:40:12.717Z,100743.00
2018-10-09T21:45:15.975Z,100737.00
2018-10-09T21:50:20.168Z,100737.00
2018-10-09T21:55:23.519Z,100737.00
2018-10-09T22:00:26.832Z,100733.00
2018-10-09T22:05:29.823Z,100737.00
2018-10-09T22:10:32.814Z,100733.00
2018-10-09T22:15:35.750Z,100733.00
2018-10-09T22:20:38.710Z,100733.00
2018-10-09T22:25:41.675Z,100730.00
2018-10-09T22:30:44.680Z,100738.00
2018-10-09T22:35:47.780Z,100738.00
2018-10-09T22:40:50.748Z,100738.00
2018-10-09T22:45:53.720Z,100728.00
2018-10-09T22:50:56.683Z,100725.00
2018-10-09T22:55:59.737Z,100726.00
2018-10-09T23:01:04.315Z,100716.00
2018-10-09T23:06:07.248Z,100723.00
2018-10-09T23:11:10.197Z,100702.00
2018-10-09T23:16:13.091Z,100710.00
2018-10-09T23:21:16.079Z,100706.00
2018-10-09T23:26:19.048Z,100715.00
2018-10-09T23:31:22.028Z,100707.00
2018-10-09T23:36:25.011Z,100704.00
2018-10-09T23:41:28.017Z,100695.00
2018-10-09T23:46:31.012Z,100689.00
2018-10-09T23:51:34.001Z,100679.00
2018-10-09T23:56:36.898Z,100681.00
